Time;durP1;ratioP1;P1;durP2;ratioP2;P2;SDS_P1;SDS_P2;PMS_P1;PMS_P2;Temp;Humidity;BMP_temperature;BMP_pressure;BME280_temperature;BME280_humidity;BME280_pressure;Samples;Min_cycle;Max_cycle;Signal;HPM_P1;HPM_P2
2024/01/03 00:00:57;;;;;;;6.28;1.10;;;;;;;7.50;82.52;97196.94;5019331;28;20053;-48
2024/01/03 00:03:25;;;;;;;7.78;1.33;;;;;;;7.51;81.99;97203.78;5024795;28;20050;-45
2024/01/03 00:05:52;;;;;;;3.78;0.85;;;;;;;7.45;83.08;97208.25;5024937;28;20426;-45
2024/01/03 00:08:26;;;;;;;6.05;1.88;;;;;;;7.46;82.68;97206.50;5012844;28;20049;-43
2024/01/03 00:10:56;;;;;;;7.43;1.42;;;;;;;7.43;81.92;97207.47;5010402;28;20064;-52
2024/01/03 00:16:19;;;;;;;6.45;2.63;;;;;;;7.45;82.20;97199.69;5072834;27;20745;-44
2024/01/03 00:21:25;;;;;;;6.95;1.23;;;;;;;7.41;82.05;97198.13;5042036;27;20386;-50
2024/01/03 00:23:55;;;;;;;3.40;0.90;;;;;;;7.43;82.02;97197.16;5027824;28;20054;-46
2024/01/03 00:26:25;;;;;;;8.07;1.20;;;;;;;7.42;82.25;97199.78;5016945;28;20056;-48
2024/01/03 00:28:52;;;;;;;3.15;0.65;;;;;;;7.40;82.58;97199.84;5022873;28;20128;-47
2024/01/03 00:36:53;;;;;;;4.18;1.15;;;;;;;7.54;82.97;97209.63;5075349;27;20380;-47
2024/01/03 00:42:00;;;;;;;4.40;0.85;;;;;;;7.46;82.85;97209.94;5035568;27;20402;-51
2024/01/03 00:44:26;;;;;;;4.80;0.88;;;;;;;7.44;83.45;97206.56;5018581;28;20064;-47
2024/01/03 00:46:55;;;;;;;3.55;0.43;;;;;;;7.43;82.64;97216.94;5018174;28;20103;-45
2024/01/03 00:49:23;;;;;;;2.35;0.45;;;;;;;7.42;83.43;97215.25;5048999;28;20083;-46
2024/01/03 00:51:50;;;;;;;4.22;0.55;;;;;;;7.39;82.38;97211.03;5013615;28;20058;-47
2024/01/03 00:54:19;;;;;;;4.85;0.63;;;;;;;7.42;83.44;97213.50;5043488;28;20053;-45
2024/01/03 00:56:47;;;;;;;4.68;0.73;;;;;;;7.36;82.71;97200.84;5018765;28;20124;-45
2024/01/03 00:59:15;;;;;;;7.93;1.05;;;;;;;7.35;82.96;97203.47;5017360;28;20054;-43
2024/01/03 01:01:44;;;;;;;5.07;1.23;;;;;;;7.38;83.86;97208.53;5015614;28;20567;-45
2024/01/03 01:04:12;;;;;;;8.52;1.13;;;;;;;7.38;82.63;97209.38;5017856;28;20081;-45
2024/01/03 01:06:41;;;;;;;10.35;1.27;;;;;;;7.35;82.91;97214.63;5011693;28;20053;-51
2024/01/03 01:09:08;;;;;;;14.02;1.20;;;;;;;7.37;82.79;97206.84;5013144;28;20049;-47
2024/01/03 01:11:37;;;;;;;8.57;0.60;;;;;;;7.37;83.63;97207.69;5015384;28;20045;-49
2024/01/03 01:14:07;;;;;;;4.10;0.80;;;;;;;7.30;83.46;97211.38;5022362;28;20049;-50
2024/01/03 01:16:34;;;;;;;4.78;0.85;;;;;;;7.34;83.66;97202.66;5036739;28;20052;-46
2024/01/03 01:19:05;;;;;;;6.07;0.90;;;;;;;7.35;82.92;97199.19;5036190;28;20239;-48
2024/01/03 01:21:32;;;;;;;6.57;0.93;;;;;;;7.32;82.86;97215.59;5034034;28;20127;-46
2024/01/03 01:24:00;;;;;;;7.03;1.17;;;;;;;7.33;82.74;97214.69;5030415;28;20177;-49
2024/01/03 01:26:28;;;;;;;7.63;0.80;;;;;;;7.32;82.84;97219.88;5035667;28;20053;-44
2024/01/03 01:28:55;;;;;;;5.50;1.35;;;;;;;7.34;83.73;97212.94;5035535;28;20038;-50
2024/01/03 01:31:25;;;;;;;10.45;1.08;;;;;;;7.31;83.69;97218.22;5039301;28;20072;-50
2024/01/03 01:33:52;;;;;;;6.60;0.82;;;;;;;7.30;83.22;97226.84;5035305;28;20079;-49
2024/01/03 01:36:22;;;;;;;11.07;1.27;;;;;;;7.30;84.02;97229.41;5032418;28;20141;-46
2024/01/03 01:38:49;;;;;;;6.57;1.02;;;;;;;7.31;83.81;97233.66;5030604;28;20045;-48
2024/01/03 01:41:19;;;;;;;8.60;1.33;;;;;;;7.30;83.97;97242.28;5032226;28;20070;-44
2024/01/03 01:43:47;;;;;;;7.75;1.15;;;;;;;7.31;83.20;97244.81;5034568;28;20483;-52
2024/01/03 01:46:16;;;;;;;8.27;1.10;;;;;;;7.31;83.24;97251.69;5034833;28;20070;-47
2024/01/03 01:48:45;;;;;;;3.72;0.88;;;;;;;7.29;83.91;97245.72;5037910;28;20058;-44
2024/01/03 01:51:14;;;;;;;3.83;1.02;;;;;;;7.31;83.80;97243.94;5030564;28;20049;-51
2024/01/03 01:53:42;;;;;;;6.70;1.02;;;;;;;7.29;83.77;97246.56;5014280;28;20049;-49
2024/01/03 01:56:10;;;;;;;6.93;0.90;;;;;;;7.30;83.70;97247.44;5020332;28;20049;-47
2024/01/03 01:58:40;;;;;;;2.60;0.60;;;;;;;7.29;84.11;97250.88;5012457;28;20151;-44
2024/01/03 02:01:07;;;;;;;9.75;0.70;;;;;;;7.29;84.25;97256.88;5026858;28;20037;-49
2024/01/03 02:03:36;;;;;;;2.75;1.13;;;;;;;7.31;83.65;97264.56;5014476;28;20076;-44
2024/01/03 02:06:08;;;;;;;8.73;1.30;;;;;;;7.35;83.30;97260.13;5006075;28;20103;-45
2024/01/03 02:08:35;;;;;;;5.35;1.08;;;;;;;7.35;84.44;97260.13;5023116;28;20042;-46
2024/01/03 02:11:04;;;;;;;3.70;1.00;;;;;;;7.37;83.59;97264.34;5019186;28;20552;-47
2024/01/03 02:13:31;;;;;;;7.00;0.80;;;;;;;7.42;83.92;97262.44;5015169;28;20057;-49
2024/01/03 02:15:59;;;;;;;11.05;1.15;;;;;;;7.45;83.92;97262.34;5019310;28;20049;-52
2024/01/03 02:18:29;;;;;;;10.77;0.68;;;;;;;7.47;83.39;97259.72;5017902;28;20061;-50
2024/01/03 02:20:58;;;;;;;6.63;0.98;;;;;;;7.49;83.80;97267.41;5014654;28;20584;-47
2024/01/03 02:23:25;;;;;;;5.15;1.05;;;;;;;7.52;84.00;97259.53;5022272;28;20045;-50
2024/01/03 02:25:54;;;;;;;5.40;1.60;;;;;;;7.52;84.11;97256.97;5008282;28;20127;-46
2024/01/03 02:28:21;;;;;;;6.65;1.60;;;;;;;7.54;84.25;97261.16;5028253;28;20091;-47
2024/01/03 02:30:48;;;;;;;14.05;0.73;;;;;;;7.53;83.68;97259.47;5025198;28;20042;-47
2024/01/03 02:33:15;;;;;;;4.07;0.60;;;;;;;7.54;83.58;97257.75;5026736;28;20049;-44
2024/01/03 02:35:42;;;;;;;1.30;0.63;;;;;;;7.51;83.27;97257.88;5021756;28;20061;-49
2024/01/03 02:38:09;;;;;;;8.32;1.00;;;;;;;7.51;83.39;97255.28;5029119;28;20046;-43
2024/01/03 02:40:36;;;;;;;7.53;0.95;;;;;;;7.49;82.89;97257.09;5027553;28;20133;-51
2024/01/03 02:43:03;;;;;;;7.35;0.85;;;;;;;7.45;83.15;97262.34;5019930;28;20061;-50
2024/01/03 02:45:29;;;;;;;5.93;1.40;;;;;;;7.42;83.60;97259.88;5018211;28;20681;-45
2024/01/03 02:47:56;;;;;;;4.22;0.85;;;;;;;7.38;82.84;97263.44;5018240;28;20053;-50
2024/01/03 02:50:23;;;;;;;4.03;0.75;;;;;;;7.35;82.81;97250.69;5026737;28;20060;-46
2024/01/03 02:52:50;;;;;;;2.47;0.90;;;;;;;7.33;83.58;97253.31;5023268;28;20057;-49
2024/01/03 02:55:17;;;;;;;4.20;0.68;;;;;;;7.29;82.98;97251.72;5029323;28;20041;-50
2024/01/03 02:57:44;;;;;;;7.38;0.60;;;;;;;7.26;82.88;97251.81;5021324;28;20081;-53
2024/01/03 03:00:11;;;;;;;3.97;1.17;;;;;;;7.25;83.14;97260.44;5021603;28;20054;-48
2024/01/03 03:02:38;;;;;;;2.00;0.88;;;;;;;7.23;82.61;97254.50;5024881;28;20041;-45
2024/01/03 03:05:05;;;;;;;8.07;0.75;;;;;;;7.24;83.72;97257.94;5024567;28;20049;-47
2024/01/03 03:07:32;;;;;;;6.18;0.50;;;;;;;7.25;82.97;97251.88;5015250;28;20132;-53
2024/01/03 03:09:59;;;;;;;4.53;0.40;;;;;;;7.26;83.59;97253.56;5023590;28;20125;-43
2024/01/03 03:12:26;;;;;;;10.57;0.52;;;;;;;7.28;82.98;97260.34;5021867;28;20103;-48
2024/01/03 03:14:52;;;;;;;6.07;0.63;;;;;;;7.31;83.05;97254.25;5024426;28;20053;-53
2024/01/03 03:17:19;;;;;;;8.68;1.92;;;;;;;7.33;83.88;97258.44;5027747;28;20514;-53
2024/01/03 03:19:47;;;;;;;4.57;1.17;;;;;;;7.35;83.14;97255.81;5024298;28;20480;-44
2024/01/03 03:22:13;;;;;;;14.98;1.00;;;;;;;7.38;82.79;97260.88;5024771;28;20550;-47
2024/01/03 03:24:40;;;;;;;8.70;1.05;;;;;;;7.41;83.31;97254.78;5024475;28;20567;-47
2024/01/03 03:27:07;;;;;;;12.68;0.95;;;;;;;7.41;83.29;97250.47;5026184;28;20053;-48
2024/01/03 03:29:33;;;;;;;1.92;0.73;;;;;;;7.44;82.80;97260.63;5027573;28;20041;-51
2024/01/03 03:32:00;;;;;;;5.43;0.77;;;;;;;7.43;82.76;97260.72;5018726;28;20045;-52
2024/01/03 03:34:27;;;;;;;6.95;0.93;;;;;;;7.45;82.83;97256.34;5027352;28;20041;-47
2024/01/03 03:36:53;;;;;;;6.30;0.50;;;;;;;7.45;83.05;97256.34;5024082;28;20054;-47
2024/01/03 03:39:20;;;;;;;4.18;1.23;;;;;;;7.49;83.02;97255.34;5023888;28;20049;-48
2024/01/03 03:41:47;;;;;;;8.88;1.60;;;;;;;7.51;83.45;97255.28;5026276;28;20052;-48
2024/01/03 03:44:15;;;;;;;3.90;0.68;;;;;;;7.54;83.75;97258.59;5025875;28;20057;-49
2024/01/03 03:46:41;;;;;;;5.72;0.90;;;;;;;7.55;83.25;97257.72;5022330;28;20045;-46
2024/01/03 03:49:08;;;;;;;3.65;1.02;;;;;;;7.57;83.08;97253.31;5020307;28;20097;-46
2024/01/03 03:51:35;;;;;;;3.75;1.13;;;;;;;7.57;83.77;97255.09;5023507;28;20054;-48
2024/01/03 03:54:02;;;;;;;5.70;0.90;;;;;;;7.58;83.44;97246.44;5012367;28;20061;-44
2024/01/03 03:56:29;;;;;;;4.05;0.60;;;;;;;7.58;83.23;97252.44;5020256;28;20100;-47
2024/01/03 03:58:56;;;;;;;7.47;0.77;;;;;;;7.58;83.38;97256.75;5020764;28;20140;-45
2024/01/03 04:01:23;;;;;;;7.90;0.55;;;;;;;7.57;83.18;97247.34;5023142;28;20053;-50
2024/01/03 04:03:50;;;;;;;3.53;0.82;;;;;;;7.57;83.28;97249.94;5020326;28;20496;-47
2024/01/03 04:06:17;;;;;;;8.40;0.68;;;;;;;7.57;83.70;97249.94;5016692;28;20053;-46
2024/01/03 04:08:46;;;;;;;10.25;1.08;;;;;;;7.56;82.66;97243.94;5021758;28;20053;-49
2024/01/03 04:11:15;;;;;;;6.90;0.70;;;;;;;7.57;83.81;97240.44;5024053;28;20488;-48
2024/01/03 04:13:42;;;;;;;7.93;0.95;;;;;;;7.58;83.55;97246.44;5020003;28;20064;-44
2024/01/03 04:16:09;;;;;;;2.25;0.50;;;;;;;7.56;83.86;97243.06;5020363;28;20099;-52
2024/01/03 04:18:35;;;;;;;7.05;0.73;;;;;;;7.58;83.62;97246.44;5022342;28;20100;-47
2024/01/03 04:21:05;;;;;;;6.40;0.60;;;;;;;7.57;83.43;97244.78;5027430;28;20044;-48
2024/01/03 04:23:32;;;;;;;5.25;1.05;;;;;;;7.58;83.91;97242.16;5019892;28;20049;-51
2024/01/03 04:26:00;;;;;;;7.03;1.23;;;;;;;7.58;83.83;97241.31;5023685;28;20689;-51
2024/01/03 04:28:27;;;;;;;4.78;0.93;;;;;;;7.60;83.81;97239.50;5014176;28;20042;-47
2024/01/03 04:30:55;;;;;;;7.55;0.80;;;;;;;7.61;84.07;97241.19;5020767;28;20044;-49
2024/01/03 04:33:22;;;;;;;4.28;0.43;;;;;;;7.62;84.01;97242.88;5017487;28;20044;-44
2024/01/03 04:35:49;;;;;;;3.63;0.50;;;;;;;7.63;83.80;97241.16;5025869;28;20081;-48
2024/01/03 04:38:16;;;;;;;10.18;1.02;;;;;;;7.62;83.90;97237.72;5025521;28;20041;-46
2024/01/03 04:40:43;;;;;;;8.38;0.70;;;;;;;7.61;83.99;97238.63;5021328;28;20057;-45
2024/01/03 04:43:11;;;;;;;9.80;0.73;;;;;;;7.59;83.92;97243.81;5022928;28;20077;-50
2024/01/03 04:45:38;;;;;;;5.53;0.80;;;;;;;7.56;83.31;97243.06;5018025;28;20053;-49
2024/01/03 04:48:05;;;;;;;8.80;1.08;;;;;;;7.54;84.51;97244.88;5021563;28;20041;-48
2024/01/03 04:50:32;;;;;;;9.27;3.97;;;;;;;7.53;84.54;97248.38;5015698;28;20091;-43
2024/01/03 04:52:59;;;;;;;4.78;1.42;;;;;;;7.50;83.83;97248.47;5024837;28;20614;-46
2024/01/03 04:55:26;;;;;;;9.57;3.08;;;;;;;7.49;84.55;97249.38;5019728;28;20042;-54
2024/01/03 04:57:53;;;;;;;3.35;0.80;;;;;;;7.48;83.49;97253.66;5022688;28;20522;-51
2024/01/03 05:00:20;;;;;;;4.07;0.60;;;;;;;7.46;84.64;97256.28;5021670;28;20458;-46
2024/01/03 05:02:47;;;;;;;6.40;1.02;;;;;;;7.43;84.61;97255.56;5014805;28;20045;-48
2024/01/03 05:05:14;;;;;;;4.05;0.82;;;;;;;7.45;83.57;97257.19;5015446;28;20446;-49
2024/01/03 05:07:40;;;;;;;4.30;0.85;;;;;;;7.44;83.68;97262.41;5024022;28;20055;-54
2024/01/03 05:10:09;;;;;;;9.23;0.90;;;;;;;7.43;84.09;97263.31;5024302;28;20053;-50
2024/01/03 05:12:37;;;;;;;5.50;1.73;;;;;;;7.40;83.28;97264.22;5022718;28;20046;-45
2024/01/03 05:15:05;;;;;;;4.65;1.23;;;;;;;7.38;84.24;97266.03;5018337;28;20127;-46
2024/01/03 05:17:32;;;;;;;7.90;3.13;;;;;;;7.36;84.24;97265.22;5022249;28;20469;-44
2024/01/03 05:19:59;;;;;;;6.88;1.70;;;;;;;7.34;83.98;97272.19;5026516;28;20054;-50
2024/01/03 05:22:26;;;;;;;4.07;1.70;;;;;;;7.33;83.23;97270.50;5026582;28;20465;-50
2024/01/03 05:24:54;;;;;;;3.53;1.25;;;;;;;7.31;84.25;97264.56;5027907;28;20045;-45
2024/01/03 05:27:21;;;;;;;6.63;2.33;;;;;;;7.29;83.32;97266.31;5024974;28;20658;-51
2024/01/03 05:29:48;;;;;;;1.67;0.85;;;;;;;7.28;83.06;97264.66;5019294;28;20053;-51
2024/01/03 05:32:16;;;;;;;5.43;0.95;;;;;;;7.25;83.08;97275.91;5027005;28;20056;-44
2024/01/03 05:34:42;;;;;;;4.78;0.77;;;;;;;7.25;83.11;97275.03;5028191;28;20053;-49
2024/01/03 05:37:10;;;;;;;5.60;0.68;;;;;;;7.24;83.43;97281.09;5027182;28;20389;-45
2024/01/03 05:39:37;;;;;;;4.30;0.50;;;;;;;7.25;83.16;97285.34;5028773;28;20053;-50
2024/01/03 05:42:05;;;;;;;5.63;0.93;;;;;;;7.28;83.57;97287.81;5022804;28;20045;-47
2024/01/03 05:44:32;;;;;;;6.78;1.20;;;;;;;7.28;84.15;97285.25;5021954;28;20048;-46
2024/01/03 05:47:00;;;;;;;8.32;1.25;;;;;;;7.29;83.62;97286.91;5015911;28;20045;-47
2024/01/03 05:49:28;;;;;;;10.15;1.17;;;;;;;7.29;83.18;97281.78;5029867;28;20092;-49
2024/01/03 05:51:55;;;;;;;5.38;1.10;;;;;;;7.31;83.32;97272.28;5023190;28;20046;-44
2024/01/03 05:54:22;;;;;;;2.97;0.68;;;;;;;7.35;83.35;97281.56;5023623;28;20048;-48
2024/01/03 05:56:50;;;;;;;3.53;0.95;;;;;;;7.36;84.40;97278.09;5019952;28;20104;-50
2024/01/03 05:59:17;;;;;;;5.38;1.38;;;;;;;7.38;83.77;97281.47;5021819;28;20089;-47
2024/01/03 06:01:45;;;;;;;2.53;1.30;;;;;;;7.37;83.91;97279.81;5018362;28;20822;-43
2024/01/03 06:04:13;;;;;;;4.45;0.80;;;;;;;7.42;83.61;97285.63;5025987;28;20045;-50
2024/01/03 06:06:41;;;;;;;3.47;0.57;;;;;;;7.44;84.21;97285.56;5020655;28;20041;-42
2024/01/03 06:09:09;;;;;;;2.92;0.77;;;;;;;7.45;84.16;97293.25;5018334;28;20143;-51
2024/01/03 06:11:35;;;;;;;5.45;1.23;;;;;;;7.44;83.68;97291.53;5022888;28;20052;-46
2024/01/03 06:14:04;;;;;;;3.35;0.68;;;;;;;7.45;83.83;97293.25;5019843;28;20042;-50
2024/01/03 06:16:30;;;;;;;4.10;0.73;;;;;;;7.42;84.29;97290.78;5025217;28;20509;-50
2024/01/03 06:18:57;;;;;;;3.72;0.68;;;;;;;7.43;83.85;97289.88;5023153;28;20427;-46
2024/01/03 06:21:24;;;;;;;1.42;0.40;;;;;;;7.43;83.79;97295.03;5026614;28;20136;-49
2024/01/03 06:23:51;;;;;;;7.53;0.70;;;;;;;7.44;83.93;97301.84;5026183;28;20126;-48
2024/01/03 06:26:21;;;;;;;2.08;0.52;;;;;;;7.43;83.68;97300.16;5024715;28;20106;-47
2024/01/03 06:28:47;;;;;;;6.35;2.33;;;;;;;7.48;84.06;97305.19;5018223;28;20189;-44
2024/01/03 06:31:20;;;;;;;4.50;0.60;;;;;;;7.50;83.69;97299.97;5020847;28;20060;-48
2024/01/03 06:33:47;;;;;;;3.22;0.77;;;;;;;7.51;84.15;97293.91;5025214;28;20046;-51
2024/01/03 06:36:14;;;;;;;5.60;1.00;;;;;;;7.53;83.86;97305.84;5029995;28;20077;-45
2024/01/03 06:38:41;;;;;;;5.78;0.93;;;;;;;7.55;83.75;97304.06;5028399;28;20518;-47
2024/01/03 06:41:09;;;;;;;5.97;1.10;;;;;;;7.57;84.19;97307.41;5025018;28;20042;-46
2024/01/03 06:43:36;;;;;;;1.40;0.57;;;;;;;7.56;83.46;97305.75;5022690;28;20060;-48
2024/01/03 06:46:03;;;;;;;2.08;0.82;;;;;;;7.58;84.10;97309.13;5028216;28;20052;-45
2024/01/03 06:48:30;;;;;;;1.58;0.98;;;;;;;7.61;84.63;97308.16;5026477;28;20053;-49
2024/01/03 06:50:57;;;;;;;3.67;0.60;;;;;;;7.62;84.70;97304.69;5025968;28;20573;-47
2024/01/03 06:53:23;;;;;;;4.47;0.93;;;;;;;7.62;84.46;97314.16;5027711;28;20124;-51
2024/01/03 06:55:50;;;;;;;5.03;0.95;;;;;;;7.65;83.90;97304.59;5023980;28;20551;-51
2024/01/03 06:58:19;;;;;;;1.55;1.05;;;;;;;7.64;84.31;97300.34;5023673;28;20064;-47
2024/01/03 07:00:46;;;;;;;2.10;0.70;;;;;;;7.66;83.44;97306.25;5025743;28;20053;-50
2024/01/03 07:03:14;;;;;;;2.55;0.60;;;;;;;7.65;83.55;97308.91;5021273;28;20445;-50
2024/01/03 07:05:43;;;;;;;2.97;0.50;;;;;;;7.62;83.77;97309.84;5021291;28;20934;-53
2024/01/03 07:08:10;;;;;;;3.78;0.68;;;;;;;7.62;84.11;97309.84;5023743;28;20047;-49
2024/01/03 07:10:39;;;;;;;3.90;0.60;;;;;;;7.62;83.66;97315.00;5025360;28;20042;-45
2024/01/03 07:13:06;;;;;;;8.35;1.77;;;;;;;7.62;83.74;97315.00;5014286;28;20038;-49
2024/01/03 07:15:33;;;;;;;7.65;1.02;;;;;;;7.65;84.48;97314.91;5025483;28;20045;-52
2024/01/03 07:18:01;;;;;;;8.63;0.73;;;;;;;7.65;84.54;97320.03;5025906;28;20063;-45
2024/01/03 07:20:30;;;;;;;5.07;0.55;;;;;;;7.66;84.77;97316.56;5023042;28;20051;-46
2024/01/03 07:22:57;;;;;;;3.63;1.17;;;;;;;7.68;84.72;97317.38;5026965;28;20124;-50
2024/01/03 07:25:24;;;;;;;3.95;0.55;;;;;;;7.68;84.08;97316.53;5023210;28;20063;-51
2024/01/03 07:27:50;;;;;;;11.90;1.30;;;;;;;7.68;84.33;97319.94;5020260;28;20622;-42
2024/01/03 07:30:18;;;;;;;4.18;0.85;;;;;;;7.70;84.25;97313.00;5021331;28;20045;-47
2024/01/03 07:32:46;;;;;;;6.80;0.47;;;;;;;7.71;83.62;97319.81;5022798;28;20049;-47
2024/01/03 07:35:13;;;;;;;0.55;0.40;;;;;;;7.71;84.14;97314.66;5027737;28;20136;-49
2024/01/03 07:37:40;;;;;;;3.17;0.75;;;;;;;7.76;84.12;97326.53;5027603;28;20081;-48
2024/01/03 07:40:07;;;;;;;2.90;0.68;;;;;;;7.74;83.93;97324.03;5029376;28;20682;-48
2024/01/03 07:42:35;;;;;;;2.67;0.77;;;;;;;7.74;84.29;97323.19;5025872;28;20403;-46
2024/01/03 07:45:02;;;;;;;5.50;0.77;;;;;;;7.75;83.56;97322.28;5017100;28;20054;-46
2024/01/03 07:47:28;;;;;;;3.65;0.73;;;;;;;7.76;83.91;97321.38;5019648;28;20061;-43
2024/01/03 07:49:57;;;;;;;4.53;0.40;;;;;;;7.79;83.67;97326.44;5023238;28;20392;-47
2024/01/03 07:52:24;;;;;;;5.47;1.02;;;;;;;7.79;83.69;97318.72;5020178;28;20042;-44
2024/01/03 07:54:54;;;;;;;10.13;1.10;;;;;;;7.80;84.19;97326.38;5019606;28;20107;-46
2024/01/03 07:57:20;;;;;;;4.28;1.13;;;;;;;7.80;83.72;97325.56;5018100;28;20060;-47
2024/01/03 07:59:47;;;;;;;4.07;1.30;;;;;;;7.81;83.69;97319.50;5018815;28;20061;-46
2024/01/03 08:02:14;;;;;;;7.72;0.60;;;;;;;7.82;83.45;97316.03;5015017;28;20042;-49
2024/01/03 08:04:42;;;;;;;8.48;1.08;;;;;;;7.82;83.82;97323.75;5021585;28;20145;-44
2024/01/03 08:07:09;;;;;;;2.75;0.68;;;;;;;7.84;83.49;97329.72;5025128;28;20045;-46
2024/01/03 08:09:37;;;;;;;6.10;0.70;;;;;;;7.85;83.85;97323.66;5019697;28;20054;-49
2024/01/03 08:12:08;;;;;;;6.07;1.25;;;;;;;7.85;84.20;97336.53;5018800;28;20107;-48
2024/01/03 08:14:36;;;;;;;7.72;1.13;;;;;;;7.86;83.67;97337.41;5026017;28;20056;-47
2024/01/03 08:17:04;;;;;;;5.10;0.60;;;;;;;7.87;83.45;97334.72;5025448;28;20526;-53
2024/01/03 08:19:33;;;;;;;6.22;0.93;;;;;;;7.88;83.79;97335.59;5027394;28;20051;-45
2024/01/03 08:22:01;;;;;;;7.60;1.05;;;;;;;7.85;83.71;97336.53;5018630;28;20204;-48
2024/01/03 08:24:28;;;;;;;4.82;0.80;;;;;;;7.85;84.03;97341.69;5020652;28;20046;-48
2024/01/03 08:26:58;;;;;;;4.53;0.40;;;;;;;7.82;83.37;97342.66;5022038;28;20129;-52
2024/01/03 08:29:25;;;;;;;7.50;0.90;;;;;;;7.82;84.05;97339.22;5015160;28;20077;-48
2024/01/03 08:31:55;;;;;;;3.42;0.75;;;;;;;7.81;83.63;97335.78;5021329;28;20053;-48
2024/01/03 08:34:21;;;;;;;8.07;1.25;;;;;;;7.81;84.21;97329.81;5027173;28;20076;-47
2024/01/03 08:36:48;;;;;;;13.00;2.38;;;;;;;7.82;83.23;97334.06;5018909;28;20068;-50
2024/01/03 08:39:15;;;;;;;9.63;2.17;;;;;;;7.84;83.74;97334.88;5021346;28;20601;-52
2024/01/03 08:41:42;;;;;;;8.07;1.02;;;;;;;7.84;83.88;97340.03;5017292;28;20045;-50
2024/01/03 08:44:08;;;;;;;6.95;0.98;;;;;;;7.82;83.84;97331.50;5018570;28;20146;-46
2024/01/03 08:46:39;;;;;;;7.97;0.85;;;;;;;7.79;83.55;97329.88;5025571;28;20053;-46
2024/01/03 08:49:08;;;;;;;3.35;0.57;;;;;;;7.78;83.70;97335.06;5023457;28;20049;-47
2024/01/03 08:51:35;;;;;;;8.57;0.93;;;;;;;7.80;83.58;97328.16;5008493;28;20763;-47
2024/01/03 08:54:02;;;;;;;4.60;1.13;;;;;;;7.81;83.35;97329.81;5022868;28;20445;-48
2024/01/03 08:56:29;;;;;;;8.48;0.95;;;;;;;7.84;83.48;97329.72;5017650;28;20053;-45
2024/01/03 08:58:56;;;;;;;7.75;1.35;;;;;;;7.87;83.66;97321.03;5014101;28;20052;-44
2024/01/03 09:01:27;;;;;;;4.50;1.15;;;;;;;7.93;83.43;97319.06;5013826;28;20058;-45
2024/01/03 09:03:54;;;;;;;6.55;1.05;;;;;;;7.95;83.70;97327.59;5012421;28;20041;-45
2024/01/03 09:06:23;;;;;;;11.07;1.40;;;;;;;8.01;83.84;97326.53;5015198;28;20445;-47
2024/01/03 09:08:50;;;;;;;8.52;1.77;;;;;;;8.04;83.63;97323.00;5019796;28;20049;-52
2024/01/03 09:11:23;;;;;;;6.63;0.80;;;;;;;8.08;83.10;97317.66;5019807;28;20056;-47
2024/01/03 09:13:52;;;;;;;5.85;1.00;;;;;;;8.12;83.41;97320.97;5017473;28;20073;-48
2024/01/03 09:16:22;;;;;;;18.45;1.65;;;;;;;8.15;83.69;97328.59;5020017;28;20107;-46
2024/01/03 09:18:49;;;;;;;6.50;1.13;;;;;;;8.29;83.21;97329.81;5014465;28;20061;-50
2024/01/03 09:21:17;;;;;;;7.15;1.33;;;;;;;8.49;84.17;97324.75;5013185;28;20069;-49
2024/01/03 09:23:44;;;;;;;10.05;1.38;;;;;;;8.61;83.65;97327.78;5014126;28;20488;-50
2024/01/03 09:26:11;;;;;;;7.65;0.80;;;;;;;8.64;82.92;97325.09;5010705;28;20046;-47
2024/01/03 09:28:41;;;;;;;5.75;0.88;;;;;;;8.67;82.79;97334.44;5020768;28;20110;-46
2024/01/03 09:31:09;;;;;;;4.63;1.13;;;;;;;8.69;82.96;97338.69;5021918;28;20132;-46
2024/01/03 09:33:38;;;;;;;11.52;1.63;;;;;;;8.79;83.02;97333.13;5017379;28;20181;-49
2024/01/03 09:36:05;;;;;;;9.10;1.00;;;;;;;8.83;83.06;97334.69;5018627;28;20128;-48
2024/01/03 09:38:34;;;;;;;6.28;0.75;;;;;;;8.86;82.95;97334.59;5016182;28;20049;-45
2024/01/03 09:41:01;;;;;;;5.57;0.75;;;;;;;8.85;82.69;97327.75;5016651;28;20503;-50
2024/01/03 09:43:28;;;;;;;4.43;0.85;;;;;;;8.80;83.03;97329.66;5018783;28;20056;-49
2024/01/03 09:45:57;;;;;;;6.63;1.38;;;;;;;8.78;82.57;97326.31;5011918;28;20056;-45
2024/01/03 09:48:24;;;;;;;6.80;1.17;;;;;;;8.74;82.38;97331.59;5022091;28;20068;-44
2024/01/03 09:50:51;;;;;;;3.08;0.38;;;;;;;8.70;82.42;97335.19;5012896;28;20049;-45
2024/01/03 09:53:19;;;;;;;6.97;0.93;;;;;;;8.68;82.19;97336.97;5018747;28;20391;-42
2024/01/03 09:55:47;;;;;;;2.20;0.70;;;;;;;8.60;82.72;97339.00;5016000;28;20084;-51
2024/01/03 09:58:14;;;;;;;5.80;0.63;;;;;;;8.59;82.87;97339.91;5017064;28;20057;-47
2024/01/03 10:00:40;;;;;;;7.03;1.17;;;;;;;8.58;82.71;97343.41;5014024;28;20049;-47
2024/01/03 10:03:07;;;;;;;11.18;1.00;;;;;;;8.55;82.79;97346.09;5028229;28;20049;-51
2024/01/03 10:05:35;;;;;;;6.38;0.75;;;;;;;8.51;82.29;97342.75;5025378;28;20049;-44
2024/01/03 10:08:20;;;;;;;3.55;0.60;;;;;;;8.47;82.76;97344.63;5022693;28;20058;-48
2024/01/03 10:10:46;;;;;;;7.40;0.88;;;;;;;8.51;82.28;97349.66;5027106;28;20129;-45
2024/01/03 10:15:50;;;;;;;4.68;0.95;;;;;;;8.51;82.56;97350.47;5026958;27;21091;-43
2024/01/03 10:18:18;;;;;;;5.43;0.63;;;;;;;8.48;82.79;97351.44;5015495;28;20117;-47
2024/01/03 10:20:49;;;;;;;3.22;0.70;;;;;;;8.49;82.81;97350.53;5053589;28;20084;-50
2024/01/03 10:23:19;;;;;;;4.63;0.98;;;;;;;8.49;82.81;97347.97;5018057;28;20132;-47
2024/01/03 10:25:46;;;;;;;4.68;0.50;;;;;;;8.46;82.73;97349.81;4992617;28;20134;-44
2024/01/03 10:28:16;;;;;;;10.07;1.98;;;;;;;8.48;82.90;97356.59;5000034;28;20476;-48
2024/01/03 10:30:50;;;;;;;7.38;1.33;;;;;;;8.48;82.33;97350.63;4991933;28;20408;-44
2024/01/03 10:33:17;;;;;;;7.97;1.13;;;;;;;8.48;82.60;97354.03;4995078;28;20069;-46
2024/01/03 10:35:45;;;;;;;8.57;1.23;;;;;;;8.52;82.74;97356.50;4999976;28;20057;-49
2024/01/03 10:38:15;;;;;;;6.32;1.10;;;;;;;8.53;82.83;97358.16;5003639;28;20046;-42
2024/01/03 10:40:44;;;;;;;;;;;;;;;8.45;83.13;97359.28;5002993;28;20141;-47
2024/01/03 10:43:11;;;;;;;5.55;1.00;;;;;;;8.49;82.53;97358.28;4999894;28;20380;-45
2024/01/03 10:45:38;;;;;;;5.65;0.82;;;;;;;8.53;82.85;97358.16;5018651;28;20053;-49
2024/01/03 10:48:05;;;;;;;4.72;0.77;;;;;;;8.58;83.21;97359.72;5007031;28;20057;-51
2024/01/03 10:50:34;;;;;;;3.15;0.98;;;;;;;8.59;83.10;97357.97;5014819;28;20271;-49
2024/01/03 10:53:08;;;;;;;5.03;0.65;;;;;;;8.62;82.56;97357.88;5017944;28;20108;-47
2024/01/03 10:55:39;;;;;;;8.90;0.77;;;;;;;8.65;83.55;97349.97;5019419;28;20041;-51
2024/01/03 10:58:13;;;;;;;10.07;1.42;;;;;;;8.70;82.97;97345.50;5003126;28;20116;-47
2024/01/03 11:00:50;;;;;;;10.10;1.75;;;;;;;8.73;82.90;97347.97;5015123;28;20079;-50
2024/01/03 11:03:43;;;;;;;6.43;0.82;;;;;;;8.78;83.02;97347.78;5005597;28;20131;-45
2024/01/03 11:06:18;;;;;;;5.70;0.93;;;;;;;8.80;82.99;97347.72;5029475;28;20045;-51
2024/01/03 11:11:42;;;;;;;8.35;3.17;;;;;;;8.79;82.91;97348.63;5040359;28;20425;-50
2024/01/03 11:16:55;;;;;;;8.32;1.83;;;;;;;9.23;82.39;97347.75;5049812;28;20422;-48
2024/01/03 11:19:28;;;;;;;6.88;1.27;;;;;;;9.16;82.82;97334.25;5023631;28;20045;-48
2024/01/03 11:21:56;;;;;;;3.75;0.63;;;;;;;9.23;83.39;97343.41;5017990;28;20045;-49
2024/01/03 11:27:07;;;;;;;6.45;0.75;;;;;;;9.65;83.29;97340.84;5022834;27;20416;-46
2024/01/03 11:34:49;;;;;;;5.95;2.33;;;;;;;9.85;82.16;97339.16;5039509;28;20612;-50
2024/01/03 11:39:55;;;;;;;4.88;1.00;;;;;;;9.76;81.94;97336.06;5026497;27;20395;-45
2024/01/03 11:42:25;;;;;;;5.95;1.40;;;;;;;9.73;81.85;97336.19;5010080;28;20048;-50
2024/01/03 11:45:08;;;;;;;4.75;0.80;;;;;;;9.75;81.39;97339.56;5013271;28;20042;-46
2024/01/03 11:47:39;;;;;;;5.50;1.58;;;;;;;9.77;82.45;97342.91;5007423;28;20096;-51
2024/01/03 11:50:08;;;;;;;8.40;1.70;;;;;;;9.80;81.54;97335.94;5008859;28;20137;-49
2024/01/03 11:52:37;;;;;;;7.07;1.35;;;;;;;9.84;81.96;97340.06;5012108;28;20096;-45
2024/01/03 11:55:07;;;;;;;3.97;0.93;;;;;;;9.81;81.36;97342.78;5007459;28;20045;-47
2024/01/03 11:57:35;;;;;;;5.85;1.05;;;;;;;9.77;80.91;97337.75;5012321;28;20136;-44
2024/01/03 12:00:03;;;;;;;6.13;0.70;;;;;;;9.84;80.89;97343.50;5015828;28;20060;-48
2024/01/03 12:02:30;;;;;;;5.45;1.60;;;;;;;9.86;80.65;97338.28;5009905;28;20052;-45
2024/01/03 12:07:36;;;;;;;4.78;0.75;;;;;;;9.77;80.75;97331.75;5037478;28;20921;-45
2024/01/03 12:10:05;;;;;;;5.15;1.67;;;;;;;9.73;80.74;97332.78;5013550;28;20503;-46
2024/01/03 12:12:32;;;;;;;4.93;1.15;;;;;;;9.65;80.88;97343.44;5006562;28;20081;-48
2024/01/03 12:14:59;;;;;;;5.80;1.60;;;;;;;9.67;80.57;97336.47;5021639;28;20048;-45
2024/01/03 12:17:30;;;;;;;5.82;1.83;;;;;;;9.65;80.60;97340.84;5014075;28;20065;-49
2024/01/03 12:20:14;;;;;;;5.47;1.60;;;;;;;9.57;80.32;97342.94;5023609;28;20393;-47